Time;durP1;ratioP1;P1;durP2;ratioP2;P2;SDS_P1;SDS_P2;PMS_P1;PMS_P2;Temp;Humidity;BMP_temperature;BMP_pressure;BME280_temperature;BME280_humidity;BME280_pressure;Samples;Min_cycle;Max_cycle;Signal;HPM_P1;HPM_P2
2024/01/03 00:00:35;;;;;;;;;;;;;;;12.63;51.63;98913.94;5051036;28;20008;-84
2024/01/03 00:03:00;;;;;;;;;;;;;;;12.64;51.60;98909.34;5050509;28;19925;-84
2024/01/03 00:05:35;;;;;;;;;;;;;;;12.65;51.84;98908.25;5050764;28;19981;-86
2024/01/03 00:08:00;;;;;;;;;;;;;;;12.69;51.61;98907.31;5051740;28;19925;-85
2024/01/03 00:10:46;;;;;;;;;;;;;;;12.69;51.65;98906.53;5051727;28;19935;-85
2024/01/03 00:13:32;;;;;;;;;;;;;;;12.68;51.65;98900.38;5049944;28;19931;-85
2024/01/03 00:16:04;;;;;;;;;;;;;;;12.67;51.79;98893.41;5049325;28;20573;-84
2024/01/03 00:18:36;;;;;;;;;;;;;;;12.70;51.89;98892.00;5049479;28;19950;-86
2024/01/03 00:21:02;;;;;;;;;;;;;;;12.71;51.73;98897.06;5047217;28;19928;-85
2024/01/03 00:23:38;;;;;;;;;;;;;;;12.73;51.71;98896.75;5051242;28;19923;-84
2024/01/03 00:26:04;;;;;;;;;;;;;;;12.69;51.84;98888.50;5049901;28;20177;-85
2024/01/03 00:28:29;;;;;;;;;;;;;;;12.71;51.59;98885.50;5051749;28;19924;-84
2024/01/03 00:30:55;;;;;;;;;;;;;;;12.73;51.95;98875.25;5049231;28;19928;-85
2024/01/03 00:33:20;;;;;;;;;;;;;;;12.75;52.04;98872.25;5050611;28;19936;-84
2024/01/03 00:35:46;;;;;;;;;;;;;;;12.75;51.55;98873.06;5052578;28;19929;-84
2024/01/03 00:38:11;;;;;;;;;;;;;;;12.75;51.70;98872.25;5050857;28;19931;-84
2024/01/03 00:40:57;;;;;;;;;;;;;;;12.71;51.87;98866.72;5049708;28;20027;-85
2024/01/03 00:43:23;;;;;;;;;;;;;;;12.69;51.95;98863.53;5051068;28;19924;-85
2024/01/03 00:45:48;;;;;;;;;;;;;;;12.71;51.98;98861.34;5049879;28;19959;-85
2024/01/03 00:48:14;;;;;;;;;;;;;;;12.75;51.85;98856.97;5051068;28;19964;-85
2024/01/03 00:50:39;;;;;;;;;;;;;;;12.74;51.84;98860.72;5050352;28;19924;-83
2024/01/03 00:53:05;;;;;;;;;;;;;;;12.72;51.74;98857.53;5050169;28;19975;-84
2024/01/03 00:55:30;;;;;;;;;;;;;;;12.67;51.85;98853.09;5051064;28;20070;-84
2024/01/03 00:57:55;;;;;;;;;;;;;;;12.66;52.06;98858.78;5051305;28;21105;-84
2024/01/03 01:00:21;;;;;;;;;;;;;;;12.66;52.01;98856.09;5050522;28;20041;-85
2024/01/03 01:02:46;;;;;;;;;;;;;;;12.65;51.95;98851.81;5050656;28;19921;-84
2024/01/03 01:05:12;;;;;;;;;;;;;;;12.65;51.95;98851.81;5049787;28;19931;-85
2024/01/03 01:07:37;;;;;;;;;;;;;;;12.63;52.21;98849.44;5050730;28;20289;-85
2024/01/03 01:10:02;;;;;;;;;;;;;;;12.63;52.19;98849.44;5050006;28;19960;-85
2024/01/03 01:12:27;;;;;;;;;;;;;;;12.63;51.92;98849.44;5050993;28;20061;-84
2024/01/03 01:14:53;;;;;;;;;;;;;;;12.60;52.15;98846.59;5051043;28;20377;-85
2024/01/03 01:17:18;;;;;;;;;;;;;;;12.60;52.06;98850.06;5050078;28;19928;-84
2024/01/03 01:19:43;;;;;;;;;;;;;;;12.60;52.22;98847.38;5047910;28;19963;-85
2024/01/03 01:22:09;;;;;;;;;;;;;;;12.59;52.20;98848.47;5049793;28;20515;-85
2024/01/03 01:24:34;;;;;;;;;;;;;;;12.62;52.32;98842.50;5047341;28;20419;-84
2024/01/03 01:26:59;;;;;;;;;;;;;;;12.64;52.43;98839.50;5050047;28;19924;-86
2024/01/03 01:29:24;;;;;;;;;;;;;;;12.68;52.19;98840.47;5048835;28;20026;-85
2024/01/03 01:31:49;;;;;;;;;;;;;;;12.73;52.43;98837.63;5051575;28;20522;-85
2024/01/03 01:34:15;;;;;;;;;;;;;;;12.74;52.28;98839.22;5049638;28;19924;-85
2024/01/03 01:36:40;;;;;;;;;;;;;;;12.74;52.38;98822.31;5048158;28;19963;-85
2024/01/03 01:39:05;;;;;;;;;;;;;;;12.75;52.50;98830.09;5049369;28;19938;-84
2024/01/03 01:41:31;;;;;;;;;;;;;;;12.78;52.23;98823.28;5049249;28;19977;-84
2024/01/03 01:43:56;;;;;;;;;;;;;;;12.77;52.21;98822.50;5049011;28;19931;-85
2024/01/03 01:46:22;;;;;;;;;;;;;;;12.79;52.30;98822.97;5050300;28;19928;-85
2024/01/03 01:48:47;;;;;;;;;;;;;;;12.82;52.38;98822.34;5050336;28;20057;-85
2024/01/03 01:51:14;;;;;;;;;;;;;;;12.84;52.52;98820.16;5049256;28;20813;-85
2024/01/03 01:53:40;;;;;;;;;;;;;;;12.88;52.38;98810.34;5050562;28;19925;-85
2024/01/03 01:56:05;;;;;;;;;;;;;;;12.92;52.42;98803.25;5050428;28;20011;-85
2024/01/03 01:58:31;;;;;;;;;;;;;;;12.94;52.35;98794.91;5050808;28;20766;-84
2024/01/03 02:00:57;;;;;;;;;;;;;;;12.92;52.38;98797.88;5048848;28;20003;-84
2024/01/03 02:03:23;;;;;;;;;;;;;;;12.88;52.33;98806.88;5052940;28;19925;-85
2024/01/03 02:05:48;;;;;;;;;;;;;;;12.86;52.60;98792.97;5082177;28;19928;-85
2024/01/03 02:08:15;;;;;;;;;;;;;;;12.88;52.69;98801.50;5048881;28;19924;-85
2024/01/03 02:10:40;;;;;;;;;;;;;;;12.90;52.65;98792.03;5049918;28;19924;-85
2024/01/03 02:13:05;;;;;;;;;;;;;;;12.97;52.52;98802.34;5079074;28;19952;-85
2024/01/03 02:15:30;;;;;;;;;;;;;;;12.94;52.62;98802.97;5050802;28;20137;-85
2024/01/03 02:17:56;;;;;;;;;;;;;;;12.91;52.84;98801.66;5050120;28;20324;-86
2024/01/03 02:20:25;;;;;;;;;;;;;;;12.89;52.64;98795.81;5049152;28;19921;-84
2024/01/03 02:22:51;;;;;;;;;;;;;;;12.88;53.01;98798.81;5051141;28;19924;-84
2024/01/03 02:25:16;;;;;;;;;;;;;;;12.92;52.77;98794.41;5055144;28;19981;-84
2024/01/03 02:27:41;;;;;;;;;;;;;;;12.98;52.90;98793.19;5049969;28;20423;-85
2024/01/03 02:30:08;;;;;;;;;;;;;;;13.05;53.07;98790.03;5047279;28;19955;-84
2024/01/03 02:32:34;;;;;;;;;;;;;;;13.11;52.90;98796.88;5050141;28;19921;-85
2024/01/03 02:34:59;;;;;;;;;;;;;;;13.12;52.79;98790.38;5050835;28;19931;-85
2024/01/03 02:37:25;;;;;;;;;;;;;;;13.12;52.71;98790.38;5051866;28;20687;-85
2024/01/03 02:39:50;;;;;;;;;;;;;;;13.12;53.11;98788.47;5051356;28;20024;-85
2024/01/03 02:42:15;;;;;;;;;;;;;;;13.15;52.89;98792.44;5051839;28;20002;-85
2024/01/03 02:44:41;;;;;;;;;;;;;;;13.20;53.05;98784.25;5053486;28;19928;-84
2024/01/03 02:47:06;;;;;;;;;;;;;;;13.24;52.95;98791.38;5053203;28;20304;-85
2024/01/03 02:49:31;;;;;;;;;;;;;;;13.29;52.86;98785.09;5048488;28;20043;-85
2024/01/03 02:51:57;;;;;;;;;;;;;;;13.30;53.04;98792.03;5054301;28;19924;-85
2024/01/03 02:54:22;;;;;;;;;;;;;;;13.34;52.95;98787.63;5052556;28;20550;-86
2024/01/03 02:56:47;;;;;;;;;;;;;;;13.36;53.00;98790.00;5053784;28;19928;-85
2024/01/03 02:59:13;;;;;;;;;;;;;;;13.38;52.84;98793.16;5051088;28;19963;-85
2024/01/03 03:01:38;;;;;;;;;;;;;;;13.40;52.89;98788.25;5050163;28;19928;-85
2024/01/03 03:04:03;;;;;;;;;;;;;;;13.43;53.07;98788.41;5051446;28;19928;-85
2024/01/03 03:06:29;;;;;;;;;;;;;;;13.47;52.98;98791.28;5052583;28;20016;-86
2024/01/03 03:08:54;;;;;;;;;;;;;;;13.51;52.91;98787.66;5054775;28;20347;-85
2024/01/03 03:11:19;;;;;;;;;;;;;;;13.53;52.90;98788.13;5051401;28;19963;-86
2024/01/03 03:13:45;;;;;;;;;;;;;;;13.53;52.78;98780.03;5052951;28;20071;-85
2024/01/03 03:16:10;;;;;;;;;;;;;;;13.52;52.84;98777.66;5051913;28;19925;-85
2024/01/03 03:18:35;;;;;;;;;;;;;;;13.51;53.08;98782.25;5051758;28;20422;-85
2024/01/03 03:21:01;;;;;;;;;;;;;;;13.53;52.91;98785.44;5052801;28;19934;-86
2024/01/03 03:23:26;;;;;;;;;;;;;;;13.57;53.21;98786.38;5053606;28;19952;-85
2024/01/03 03:25:51;;;;;;;;;;;;;;;13.61;53.08;98776.56;5052429;28;19925;-86
2024/01/03 03:28:17;;;;;;;;;;;;;;;13.64;53.04;98783.19;5051452;28;20413;-86
2024/01/03 03:30:42;;;;;;;;;;;;;;;13.68;53.14;98786.88;5052390;28;19924;-86
2024/01/03 03:33:07;;;;;;;;;;;;;;;13.70;52.92;98784.66;5052699;28;19931;-86
2024/01/03 03:35:33;;;;;;;;;;;;;;;13.73;52.91;98794.00;5051881;28;19929;-86
2024/01/03 03:37:58;;;;;;;;;;;;;;;13.77;53.17;98794.94;5053579;28;19920;-85
2024/01/03 03:40:24;;;;;;;;;;;;;;;13.79;53.04;98782.75;5053860;28;19924;-86
2024/01/03 03:42:50;;;;;;;;;;;;;;;13.81;53.06;98787.81;5054230;28;20393;-86
2024/01/03 03:45:15;;;;;;;;;;;;;;;13.83;52.80;98789.09;5052901;28;19924;-86
2024/01/03 03:47:40;;;;;;;;;;;;;;;13.86;52.89;98779.59;5049824;28;20473;-87
2024/01/03 03:50:06;;;;;;;;;;;;;;;13.88;52.71;98774.69;5050794;28;19975;-86
2024/01/03 03:52:31;;;;;;;;;;;;;;;13.88;52.81;98770.09;5052003;28;21714;-86
2024/01/03 03:54:56;;;;;;;;;;;;;;;13.90;52.92;98773.25;5052577;28;19939;-86
2024/01/03 03:57:21;;;;;;;;;;;;;;;13.93;53.05;98782.59;5053110;28;19971;-85
2024/01/03 03:59:47;;;;;;;;;;;;;;;13.95;52.95;98776.88;5052945;28;19921;-86
2024/01/03 04:02:12;;;;;;;;;;;;;;;13.97;52.80;98772.75;5052700;28;19955;-86
2024/01/03 04:04:38;;;;;;;;;;;;;;;14.00;52.87;98774.03;5054201;28;19925;-86
2024/01/03 04:07:03;;;;;;;;;;;;;;;14.02;53.01;98787.97;5052844;28;19924;-85
2024/01/03 04:09:29;;;;;;;;;;;;;;;14.04;52.90;98777.69;5053031;28;19917;-86
2024/01/03 04:11:54;;;;;;;;;;;;;;;14.06;53.01;98781.63;5052110;28;20568;-85
2024/01/03 04:14:20;;;;;;;;;;;;;;;14.10;53.08;98777.19;5051612;28;20381;-86
2024/01/03 04:16:45;;;;;;;;;;;;;;;14.13;52.84;98771.16;5054594;28;19943;-86
2024/01/03 04:19:10;;;;;;;;;;;;;;;14.16;52.87;98783.97;5050628;28;19925;-86
2024/01/03 04:21:36;;;;;;;;;;;;;;;14.17;53.05;98780.19;5052400;28;19924;-86
2024/01/03 04:24:01;;;;;;;;;;;;;;;14.18;52.87;98776.41;5051412;28;19924;-86
2024/01/03 04:26:29;;;;;;;;;;;;;;;14.16;52.69;98786.66;5051427;28;19927;-86
2024/01/03 04:28:54;;;;;;;;;;;;;;;14.16;52.92;98781.28;5052460;28;19930;-85
2024/01/03 04:31:20;;;;;;;;;;;;;;;14.19;52.91;98782.56;5051046;28;20314;-85
2024/01/03 04:33:45;;;;;;;;;;;;;;;14.19;52.84;98782.56;5052250;28;19928;-86
2024/01/03 04:36:13;;;;;;;;;;;;;;;14.21;52.81;98781.13;5053325;28;19932;-86
2024/01/03 04:38:38;;;;;;;;;;;;;;;14.23;52.91;98775.44;5050829;28;20289;-85
2024/01/03 04:41:04;;;;;;;;;;;;;;;14.24;52.83;98770.84;5051923;28;19932;-86
2024/01/03 04:43:29;;;;;;;;;;;;;;;14.23;53.00;98782.72;5051567;28;19948;-86
2024/01/03 04:45:54;;;;;;;;;;;;;;;14.24;52.91;98787.00;5051527;28;20380;-85
2024/01/03 04:48:20;;;;;;;;;;;;;;;14.27;52.91;98772.88;5050697;28;19917;-86
2024/01/03 04:50:45;;;;;;;;;;;;;;;14.28;52.81;98777.94;5051988;28;20014;-86
2024/01/03 04:53:11;;;;;;;;;;;;;;;14.22;53.15;98784.63;5053081;28;19971;-86
2024/01/03 04:55:36;;;;;;;;;;;;;;;14.24;53.10;98768.94;5050940;28;20662;-85
2024/01/03 04:58:01;;;;;;;;;;;;;;;14.24;53.14;98768.94;5050748;28;20014;-86
2024/01/03 05:00:26;;;;;;;;;;;;;;;14.29;53.42;98773.34;5052278;28;19925;-86
2024/01/03 05:02:52;;;;;;;;;;;;;;;14.34;53.31;98775.88;5048165;28;19940;-86
2024/01/03 05:05:17;;;;;;;;;;;;;;;14.36;53.29;98779.03;5050531;28;19921;-85
2024/01/03 05:07:43;;;;;;;;;;;;;;;14.40;53.24;98777.31;5052122;28;19931;-85
2024/01/03 05:10:09;;;;;;;;;;;;;;;14.41;53.23;98781.56;5050522;28;20583;-85
2024/01/03 05:12:35;;;;;;;;;;;;;;;14.42;53.44;98785.84;5051555;28;19924;-86
2024/01/03 05:15:00;;;;;;;;;;;;;;;14.49;53.42;98773.47;5050740;28;19930;-85
2024/01/03 05:17:26;;;;;;;;;;;;;;;14.54;53.42;98780.59;5051668;28;19924;-86
2024/01/03 05:19:52;;;;;;;;;;;;;;;14.58;53.22;98778.06;5048246;28;19924;-86
2024/01/03 05:22:17;;;;;;;;;;;;;;;14.63;52.99;98789.47;5050762;28;19925;-85
2024/01/03 05:24:42;;;;;;;;;;;;;;;14.62;53.15;98789.78;5052288;28;19924;-87
2024/01/03 05:27:07;;;;;;;;;;;;;;;14.66;53.28;98791.50;5051354;28;19932;-87
2024/01/03 05:29:33;;;;;;;;;;;;;;;14.70;53.29;98794.34;5050518;28;19924;-86
2024/01/03 05:31:58;;;;;;;;;;;;;;;14.72;53.20;98795.63;5049747;28;19932;-85
2024/01/03 05:34:24;;;;;;;;;;;;;;;14.73;52.88;98801.81;5051129;28;19931;-86
2024/01/03 05:36:49;;;;;;;;;;;;;;;14.71;53.27;98804.00;5050627;28;19935;-85
2024/01/03 05:39:14;;;;;;;;;;;;;;;14.73;52.98;98799.91;5050596;28;19920;-86
2024/01/03 05:41:40;;;;;;;;;;;;;;;14.72;53.06;98806.41;5050535;28;20367;-86
2024/01/03 05:44:05;;;;;;;;;;;;;;;14.72;53.06;98803.72;5051692;28;19932;-86
2024/01/03 05:46:30;;;;;;;;;;;;;;;14.72;52.87;98809.09;5050569;28;19925;-85
2024/01/03 05:48:56;;;;;;;;;;;;;;;14.69;52.92;98812.41;5050065;28;19927;-86
2024/01/03 05:51:21;;;;;;;;;;;;;;;14.66;52.91;98810.38;5050300;28;19925;-86
2024/01/03 05:53:47;;;;;;;;;;;;;;;14.62;53.12;98806.75;5051659;28;19971;-86
2024/01/03 05:56:16;;;;;;;;;;;;;;;14.60;53.12;98814.38;5051973;28;19929;-86
2024/01/03 05:58:44;;;;;;;;;;;;;;;14.62;53.00;98822.13;5050854;28;19978;-86
2024/01/03 06:01:10;;;;;;;;;;;;;;;14.60;53.04;98822.44;5052532;28;20019;-87
2024/01/03 06:03:35;;;;;;;;;;;;;;;14.61;53.16;98815.94;5051911;28;19920;-86
2024/01/03 06:06:00;;;;;;;;;;;;;;;14.64;53.09;98823.38;5050775;28;20009;-87
2024/01/03 06:08:26;;;;;;;;;;;;;;;14.63;53.26;98819.13;5050336;28;19924;-85
2024/01/03 06:10:51;;;;;;;;;;;;;;;14.65;53.17;98824.97;5054994;28;19924;-87
2024/01/03 06:13:17;;;;;;;;;;;;;;;14.69;53.42;98825.09;5055605;28;19921;-87
2024/01/03 06:15:42;;;;;;;;;;;;;;;14.71;53.06;98834.47;5056189;28;19936;-86
2024/01/03 06:18:08;;;;;;;;;;;;;;;14.73;52.89;98831.47;5054974;28;21301;-86
2024/01/03 06:20:33;;;;;;;;;;;;;;;14.69;53.00;98830.50;5054035;28;20007;-86
2024/01/03 06:22:58;;;;;;;;;;;;;;;14.73;53.03;98829.56;5055658;28;20016;-87
2024/01/03 06:25:23;;;;;;;;;;;;;;;14.79;53.05;98836.34;5053580;28;19952;-85
2024/01/03 06:27:49;;;;;;;;;;;;;;;14.84;52.99;98842.69;5057028;28;20426;-87
2024/01/03 06:30:14;;;;;;;;;;;;;;;14.88;52.76;98844.41;5055514;28;19924;-87
2024/01/03 06:32:39;;;;;;;;;;;;;;;14.96;52.49;98850.91;5054838;28;19924;-86
2024/01/03 06:35:05;;;;;;;;;;;;;;;14.93;52.50;98846.16;5054767;28;19931;-86
2024/01/03 06:37:30;;;;;;;;;;;;;;;14.95;52.43;98852.00;5056542;28;19920;-86
2024/01/03 06:39:55;;;;;;;;;;;;;;;14.95;52.37;98860.88;5056029;28;20403;-87
2024/01/03 06:42:21;;;;;;;;;;;;;;;14.99;52.33;98856.44;5054723;28;19927;-87
2024/01/03 06:44:46;;;;;;;;;;;;;;;14.94;52.19;98853.13;5055432;28;20295;-86
2024/01/03 06:47:11;;;;;;;;;;;;;;;14.96;52.27;98853.59;5055064;28;20006;-85
2024/01/03 06:49:37;;;;;;;;;;;;;;;14.98;52.10;98859.44;5054872;28;19927;-87
2024/01/03 06:52:03;;;;;;;;;;;;;;;15.03;51.97;98868.16;5056983;28;19924;-87
2024/01/03 06:54:28;;;;;;;;;;;;;;;14.98;51.88;98864.84;5056109;28;19952;-87
2024/01/03 06:56:54;;;;;;;;;;;;;;;14.98;52.03;98868.31;5086812;27;20316;-87
2024/01/03 06:59:19;;;;;;;;;;;;;;;14.94;52.03;98875.47;5054282;28;19924;-87
2024/01/03 07:01:45;;;;;;;;;;;;;;;14.94;52.02;98870.09;5054505;28;19932;-87
2024/01/03 07:04:10;;;;;;;;;;;;;;;14.97;52.11;98876.75;5057387;28;19968;-86
2024/01/03 07:06:35;;;;;;;;;;;;;;;14.98;51.98;98879.13;5054637;28;19920;-86
2024/01/03 07:09:01;;;;;;;;;;;;;;;14.97;51.89;98876.75;5055412;28;20418;-87
2024/01/03 07:11:26;;;;;;;;;;;;;;;14.94;51.90;98874.69;5054718;28;19925;-87
2024/01/03 07:13:51;;;;;;;;;;;;;;;14.94;51.90;98890.88;5053438;28;20402;-86
2024/01/03 07:16:18;;;;;;;;;;;;;;;14.96;51.81;98899.44;5055038;28;19964;-86
2024/01/03 07:18:43;;;;;;;;;;;;;;;14.98;51.84;98891.81;5057544;28;19920;-87
2024/01/03 07:21:08;;;;;;;;;;;;;;;14.98;51.75;98899.91;5053057;28;19940;-86
2024/01/03 07:23:33;;;;;;;;;;;;;;;14.97;51.70;98901.81;5056155;28;19932;-87
2024/01/03 07:25:59;;;;;;;;;;;;;;;14.96;51.90;98910.22;5055780;28;19924;-86
2024/01/03 07:28:24;;;;;;;;;;;;;;;14.99;51.73;98910.38;5057405;28;19931;-86
2024/01/03 07:30:49;;;;;;;;;;;;;;;14.96;51.80;98913.69;5056019;28;20374;-86
2024/01/03 07:33:14;;;;;;;;;;;;;;;15.00;51.53;98908.47;5054317;28;21039;-87
2024/01/03 07:35:40;;;;;;;;;;;;;;;14.95;51.58;98917.50;5056635;28;19924;-87
2024/01/03 07:38:05;;;;;;;;;;;;;;;14.89;51.61;98915.28;5056106;28;20300;-87
2024/01/03 07:40:31;;;;;;;;;;;;;;;14.86;51.63;98915.94;5059167;28;19949;-87
2024/01/03 07:42:56;;;;;;;;;;;;;;;14.81;51.77;98925.78;5053620;28;19927;-87
2024/01/03 07:45:21;;;;;;;;;;;;;;;14.82;51.75;98916.59;5055004;28;19942;-86
2024/01/03 07:47:47;;;;;;;;;;;;;;;14.77;51.60;98914.06;5054198;28;20439;-86
2024/01/03 07:50:12;;;;;;;;;;;;;;;14.73;51.84;98923.13;5056627;28;19924;-86
2024/01/03 07:52:37;;;;;;;;;;;;;;;14.72;51.81;98926.91;5058294;28;20404;-86
2024/01/03 07:55:03;;;;;;;;;;;;;;;14.73;51.87;98926.59;5055326;28;19916;-87
2024/01/03 07:57:28;;;;;;;;;;;;;;;14.73;51.85;98929.31;5054047;28;19946;-87
2024/01/03 07:59:54;;;;;;;;;;;;;;;14.74;51.65;98925.50;5054050;28;20011;-86
2024/01/03 08:02:19;;;;;;;;;;;;;;;14.71;51.91;98928.00;5054624;28;19969;-87
2024/01/03 08:04:44;;;;;;;;;;;;;;;14.69;51.95;98932.94;5053665;28;19924;-87
2024/01/03 08:07:09;;;;;;;;;;;;;;;14.66;52.05;98923.59;5054045;28;19920;-86
2024/01/03 08:09:37;;;;;;;;;;;;;;;14.71;51.92;98926.09;5051516;28;19924;-87
2024/01/03 08:12:02;;;;;;;;;;;;;;;14.70;52.02;98924.53;5055949;28;19924;-87
2024/01/03 08:14:28;;;;;;;;;;;;;;;14.72;51.84;98926.91;5054598;28;20612;-87
2024/01/03 08:16:53;;;;;;;;;;;;;;;14.69;51.92;98922.16;5054885;28;19927;-87
2024/01/03 08:19:18;;;;;;;;;;;;;;;14.68;51.91;98926.75;5054144;28;19924;-87
2024/01/03 08:21:44;;;;;;;;;;;;;;;14.65;51.98;98932.78;5052688;28;19924;-86
2024/01/03 08:24:09;;;;;;;;;;;;;;;14.65;51.90;98930.09;5054542;28;19935;-87
2024/01/03 08:26:34;;;;;;;;;;;;;;;14.63;52.02;98929.63;5053676;28;19928;-86
2024/01/03 08:28:59;;;;;;;;;;;;;;;14.63;52.04;98932.31;5054236;28;19921;-86
2024/01/03 08:31:25;;;;;;;;;;;;;;;14.64;52.12;98930.41;5053086;28;19916;-86
2024/01/03 08:33:50;;;;;;;;;;;;;;;14.65;52.24;98932.78;5053151;28;19920;-85
2024/01/03 08:36:15;;;;;;;;;;;;;;;14.65;52.07;98943.56;5051373;28;20583;-87
2024/01/03 08:38:42;;;;;;;;;;;;;;;14.68;51.96;98942.91;5051021;28;20453;-86
2024/01/03 08:41:11;;;;;;;;;;;;;;;14.64;52.08;98936.59;5053739;28;20411;-86
2024/01/03 08:43:37;;;;;;;;;;;;;;;14.64;52.19;98941.19;5055076;28;19931;-90
2024/01/03 08:46:05;;;;;;;;;;;;;;;14.60;52.18;98930.25;5054403;28;20388;-89
2024/01/03 08:48:31;;;;;;;;;;;;;;;14.63;52.26;98939.59;5052873;28;19920;-87
2024/01/03 08:50:57;;;;;;;;;;;;;;;14.63;52.44;98932.31;5066682;28;19923;-85
2024/01/03 08:53:22;;;;;;;;;;;;;;;14.67;52.42;98945.94;5054037;28;20694;-87
2024/01/03 08:55:47;;;;;;;;;;;;;;;14.66;52.37;98939.75;5049362;28;20380;-86
2024/01/03 08:58:12;;;;;;;;;;;;;;;14.72;52.33;98933.09;5051355;28;19924;-87
2024/01/03 09:00:38;;;;;;;;;;;;;;;14.70;52.46;98946.09;5050566;28;20463;-86
2024/01/03 09:03:03;;;;;;;;;;;;;;;14.73;52.44;98937.38;5052067;28;20554;-86
2024/01/03 09:05:28;;;;;;;;;;;;;;;14.75;52.41;98943.25;5049015;28;19921;-86
2024/01/03 09:07:54;;;;;;;;;;;;;;;14.85;52.35;98942.09;5050811;28;19924;-86
2024/01/03 09:10:19;;;;;;;;;;;;;;;14.91;52.35;98958.94;5048744;28;19986;-87
2024/01/03 09:12:44;;;;;;;;;;;;;;;14.87;52.12;98945.28;5050913;28;20466;-86
2024/01/03 09:15:10;;;;;;;;;;;;;;;14.85;52.26;98938.63;5048944;28;19931;-85
2024/01/03 09:17:35;;;;;;;;;;;;;;;14.82;52.24;98940.84;5051160;28;19936;-86
2024/01/03 09:20:00;;;;;;;;;;;;;;;14.85;52.23;98941.31;5052342;28;19990;-87
2024/01/03 09:22:25;;;;;;;;;;;;;;;14.79;52.35;98941.50;5061475;28;20359;-86
2024/01/03 09:24:51;;;;;;;;;;;;;;;14.85;52.21;98930.53;5051408;28;20521;-87
2024/01/03 09:27:17;;;;;;;;;;;;;;;14.87;52.03;98942.56;5050125;28;19925;-86
2024/01/03 09:29:43;;;;;;;;;;;;;;;14.89;52.08;98947.66;5048062;28;19924;-86
2024/01/03 09:32:08;;;;;;;;;;;;;;;14.87;52.16;98944.47;5049207;28;19924;-87
2024/01/03 09:34:42;;;;;;;;;;;;;;;14.88;52.18;98949.56;5056925;28;20058;-86
2024/01/03 09:37:07;;;;;;;;;;;;;;;14.93;52.05;98945.91;5058835;28;19970;-85
2024/01/03 09:39:33;;;;;;;;;;;;;;;15.01;51.98;98942.41;5057908;28;19921;-85
2024/01/03 09:41:59;;;;;;;;;;;;;;;15.05;51.89;98952.22;5054960;28;20070;-86
2024/01/03 09:44:26;;;;;;;;;;;;;;;15.09;51.78;98955.09;5053651;28;20423;-86
2024/01/03 09:46:52;;;;;;;;;;;;;;;15.07;51.79;98955.38;5056474;28;19973;-86
2024/01/03 09:49:18;;;;;;;;;;;;;;;15.11;51.59;98956.34;5055952;28;19917;-86
2024/01/03 09:51:46;;;;;;;;;;;;;;;15.11;51.72;98956.34;5059175;28;19920;-87
2024/01/03 09:54:11;;;;;;;;;;;;;;;15.09;51.77;98958.56;5056859;28;19947;-86
2024/01/03 09:56:40;;;;;;;;;;;;;;;15.13;51.90;98960.63;5056876;28;20421;-86
2024/01/03 09:59:06;;;;;;;;;;;;;;;15.16;51.77;98954.59;5057011;28;19921;-86
2024/01/03 10:01:32;;;;;;;;;;;;;;;15.18;51.64;98963.16;5062388;28;19933;-86
2024/01/03 10:03:58;;;;;;;;;;;;;;;15.18;51.74;98972.03;5056276;28;19916;-86
2024/01/03 10:06:23;;;;;;;;;;;;;;;15.21;51.48;98965.19;5057631;28;20397;-85
2024/01/03 10:08:58;;;;;;;;;;;;;;;15.27;51.50;98969.31;5053571;28;19962;-86
2024/01/03 10:11:23;;;;;;;;;;;;;;;15.24;51.32;98973.44;5058161;28;19920;-86
2024/01/03 10:13:52;;;;;;;;;;;;;;;15.25;51.35;98961.53;5065256;28;19912;-86
2024/01/03 10:16:24;;;;;;;;;;;;;;;15.28;51.29;98970.91;5053493;28;19927;-86
2024/01/03 10:19:16;;;;;;;;;;;;;;;15.27;51.20;98966.63;5053517;28;19928;-86
2024/01/03 10:21:46;;;;;;;;;;;;;;;15.27;51.27;98964.72;5055372;28;19928;-86
2024/01/03 10:24:11;;;;;;;;;;;;;;;15.32;51.32;98961.03;5057319;28;19921;-86
2024/01/03 10:26:37;;;;;;;;;;;;;;;15.31;51.16;98954.06;5056694;28;20653;-87
2024/01/03 10:29:09;;;;;;;;;;;;;;;15.30;51.33;98966.78;5055893;28;19917;-88
2024/01/03 10:31:34;;;;;;;;;;;;;;;15.31;51.07;98962.94;5053335;28;19931;-86
2024/01/03 10:33:59;;;;;;;;;;;;;;;15.34;51.23;98967.69;5055995;28;19921;-86
2024/01/03 10:36:26;;;;;;;;;;;;;;;15.33;51.09;98965.31;5056126;28;19928;-87
2024/01/03 10:38:52;;;;;;;;;;;;;;;15.36;51.27;98976.25;5062808;28;19923;-87
2024/01/03 10:41:18;;;;;;;;;;;;;;;15.40;50.72;98955.59;5052685;28;19916;-86
2024/01/03 10:43:44;;;;;;;;;;;;;;;15.37;50.78;98963.56;5054602;28;20030;-86
2024/01/03 10:46:10;;;;;;;;;;;;;;;15.37;50.74;98961.66;5052372;28;20537;-86
2024/01/03 10:48:35;;;;;;;;;;;;;;;15.33;51.06;98955.31;5052847;28;20038;-87
2024/01/03 10:51:01;;;;;;;;;;;;;;;15.39;50.79;98955.94;5055486;28;20015;-87
2024/01/03 10:53:30;;;;;;;;;;;;;;;15.38;50.90;98946.25;5054908;28;19986;-86
2024/01/03 10:55:58;;;;;;;;;;;;;;;15.37;50.99;98950.06;5054900;28;19966;-86
2024/01/03 10:58:24;;;;;;;;;;;;;;;15.40;51.11;98960.22;5056626;28;19974;-86
2024/01/03 11:00:52;;;;;;;;;;;;;;;15.42;50.79;98947.19;5057883;28;19924;-86
2024/01/03 11:03:36;;;;;;;;;;;;;;;15.46;50.88;98944.66;5056606;28;19923;-86
2024/01/03 11:06:10;;;;;;;;;;;;;;;15.49;50.84;98941.31;5057245;28;20043;-86
2024/01/03 11:08:46;;;;;;;;;;;;;;;15.47;50.84;98941.63;5060728;28;19921;-86
2024/01/03 11:11:14;;;;;;;;;;;;;;;15.55;50.72;98938.09;5059657;28;19924;-85
2024/01/03 11:13:40;;;;;;;;;;;;;;;15.56;50.36;98934.28;5065852;28;19920;-86
2024/01/03 11:16:06;;;;;;;;;;;;;;;15.63;50.48;98939.22;5061920;28;19924;-86
2024/01/03 11:18:40;;;;;;;;;;;;;;;15.60;50.45;98942.53;5070487;28;19924;-87
2024/01/03 11:21:30;;;;;;;;;;;;;;;15.64;50.38;98941.59;5057522;28;19981;-86
2024/01/03 11:23:56;;;;;;;;;;;;;;;15.69;50.18;98932.50;5056215;28;19927;-86
2024/01/03 11:26:40;;;;;;;;;;;;;;;15.74;49.90;98936.91;5065274;28;19924;-88
2024/01/03 11:29:05;;;;;;;;;;;;;;;15.76;49.80;98937.38;5060113;28;19967;-86
2024/01/03 11:31:49;;;;;;;;;;;;;;;15.77;49.84;98939.75;5065780;28;19962;-86
2024/01/03 11:34:33;;;;;;;;;;;;;;;15.81;49.69;98935.31;5064380;28;19924;-86
2024/01/03 11:36:58;;;;;;;;;;;;;;;15.79;49.78;98937.50;5058115;28;19925;-87
2024/01/03 11:39:38;;;;;;;;;;;;;;;15.84;49.71;98940.03;5063315;28;20395;-86
2024/01/03 11:42:04;;;;;;;;;;;;;;;15.86;49.61;98932.41;5058200;28;20407;-86
2024/01/03 11:44:29;;;;;;;;;;;;;;;15.86;49.61;98935.09;5065934;28;19920;-86
2024/01/03 11:46:58;;;;;;;;;;;;;;;15.90;49.51;98927.94;5065099;28;19927;-86
2024/01/03 11:49:23;;;;;;;;;;;;;;;15.91;49.44;98931.41;5063860;28;19932;-85
2024/01/03 11:51:49;;;;;;;;;;;;;;;15.90;49.43;98929.84;5059836;28;19920;-86
2024/01/03 11:54:14;;;;;;;;;;;;;;;15.90;49.44;98922.53;5057998;28;20732;-86
2024/01/03 11:56:39;;;;;;;;;;;;;;;15.92;49.51;98917.59;5061190;28;20400;-87
2024/01/03 11:59:04;;;;;;;;;;;;;;;15.96;49.32;98915.00;5060304;28;19920;-87
2024/01/03 12:01:30;;;;;;;;;;;;;;;15.99;49.14;98917.09;5061910;28;19924;-85
2024/01/03 12:04:08;;;;;;;;;;;;;;;16.04;49.24;98921.50;5064200;28;19941;-86
2024/01/03 12:06:34;;;;;;;;;;;;;;;16.14;49.20;98915.69;5061920;28;19921;-86
2024/01/03 12:08:59;;;;;;;;;;;;;;;16.21;49.08;98915.97;5058375;28;20139;-86
2024/01/03 12:11:25;;;;;;;;;;;;;;;16.33;49.10;98921.41;5060393;28;19920;-87
2024/01/03 12:13:51;;;;;;;;;;;;;;;16.41;48.82;98920.56;5059317;28;19920;-86
2024/01/03 12:16:16;;;;;;;;;;;;;;;16.51;48.67;98925.56;5064750;28;19927;-87
2024/01/03 12:18:51;;;;;;;;;;;;;;;16.57;48.72;98918.84;5064760;28;19963;-86
2024/01/03 12:21:17;;;;;;;;;;;;;;;16.64;48.59;98912.91;5053353;28;19927;-87
2024/01/03 12:23:55;;;;;;;;;;;;;;;16.71;48.36;98912.41;5055272;28;20366;-87
2024/01/03 12:26:21;;;;;;;;;;;;;;;16.70;48.35;98900.81;5067443;28;19924;-84
2024/01/03 12:28:46;;;;;;;;;;;;;;;16.74;48.31;98904.41;5058104;28;19981;-86
2024/01/03 12:31:18;;;;;;;;;;;;;;;16.80;48.24;98916.59;5062891;28;19920;-86
2024/01/03 12:33:43;;;;;;;;;;;;;;;16.80;48.00;98907.69;5060112;28;19921;-85
2024/01/03 12:36:09;;;;;;;;;;;;;;;16.87;47.94;98907.91;5056446;28;19940;-87
2024/01/03 12:38:34;;;;;;;;;;;;;;;16.89;47.82;98906.50;5058278;28;20381;-86
2024/01/03 12:40:59;;;;;;;;;;;;;;;16.86;47.66;98903.63;5060225;28;19924;-86
2024/01/03 12:43:24;;;;;;;;;;;;;;;16.90;47.39;98904.56;5055928;28;20656;-86